首页
METAR-TAF:

METAR-TAF

机场 :

唐卡斯特, 英格兰

纬度: 53-29N, 经度: 001-00W, 海拔: 17米

当前天气观测

该预报发布于16分钟前的08:50 UTC
风速5节,风向南转南东
温度 8°C
湿度 93%
气压 1006 hPa
能见度10公里或以上
1500米以下无云,无积雨云

METAR: EGCN 170850Z 15005KT CAVOK 08/07 Q1006

时间: 10:06 (09:06 UTC)

预报

该预报发布于4小时和7分钟前的04:59 UTC
预报有效从17日的 06点(UTC)到 18日的 06点(UTC)
风速8节,风向
能见度10公里或以上
1500米以下无云,无积雨云
几率 30%
从 17日的 06点(UTC)到 17日的 09点(UTC)
能見度: 7000
成为
从 17日的 11点(UTC)到 17日的 14点(UTC)
多云层高于3000英尺
几率 30% :
短暂存在
从 17日的 14点(UTC)到 17日的 22点(UTC)
能見度: 7000
阵雨
几率 30% :
短暂存在
从 17日的 22点(UTC)到 18日的 02点(UTC)
多云层高于1000英尺
短暂存在
从 18日的 02点(UTC)到 18日的 06点(UTC)
能見度: 6000
多云层高于1000英尺
阵雨
几率 30% :
短暂存在
从 18日的 02点(UTC)到 18日的 06点(UTC)
多云层高于500英尺

TAF: EGCN 170459Z 1706/1806 19008KT CAVOK PROB30 1706/1709 7000 BECMG 1711/1714 BKN030 PROB30 TEMPO 1714/1722 7000 SHRA PROB30 TEMPO 1722/1802 BKN010 TEMPO 1802/1806 6000 SHRA BKN010 PROB30 TEMPO 1802/1806 BKN005

超过4000个机场的气象观测和天气预报(METAR&TAF报告)。

可查询的气象台以黄色和红色小点在地图上表示。

将鼠标移到小点上方,可查看气象台名称。

然后点击查看天气观测和预报。

如需切换地图:点击带黑十字的绿色按钮放大地图;点击带横线的绿色按钮缩小地图;或者点击绿色箭头查看邻近地区的地图。


METAR-TAF: